Time;durP1;ratioP1;P1;durP2;ratioP2;P2;SDS_P1;SDS_P2;PMS_P1;PMS_P2;Temp;Humidity;BMP_temperature;BMP_pressure;BME280_temperature;BME280_humidity;BME280_pressure;Samples;Min_cycle;Max_cycle;Signal;HPM_P1;HPM_P2
2022/04/28 00:00:57;;;;;;;2.25;1.65;;;;;;;;;;5052125;28;20086;-50
2022/04/28 00:03:24;;;;;;;2.03;1.52;;;;;;;;;;5049336;28;20021;-50
2022/04/28 00:05:50;;;;;;;1.80;1.40;;;;;;;;;;5052587;28;20025;-48
2022/04/28 00:08:16;;;;;;;2.75;1.52;;;;;;;;;;5051891;28;20021;-48
2022/04/28 00:10:42;;;;;;;3.13;1.92;;;;;;;;;;5050895;28;20056;-48
2022/04/28 00:13:08;;;;;;;3.53;1.90;;;;;;;;;;5051179;28;20025;-50
2022/04/28 00:15:34;;;;;;;1.92;1.60;;;;;;;;;;5050735;28;20017;-49
2022/04/28 00:18:00;;;;;;;2.55;1.75;;;;;;;;;;5050460;28;20428;-49
2022/04/28 00:20:26;;;;;;;1.98;1.73;;;;;;;;;;5051074;28;20044;-55
2022/04/28 00:22:53;;;;;;;1.83;1.20;;;;;;;;;;5044105;28;20021;-53
2022/04/28 00:25:21;;;;;;;1.70;1.35;;;;;;;;;;5048187;28;20033;-49
2022/04/28 00:27:47;;;;;;;1.92;1.45;;;;;;;;;;5047026;28;20041;-49
2022/04/28 00:30:13;;;;;;;2.67;1.60;;;;;;;;;;5050905;28;20083;-49
2022/04/28 00:32:39;;;;;;;2.63;1.70;;;;;;;;;;5049093;28;20098;-49
2022/04/28 00:35:05;;;;;;;1.65;1.30;;;;;;;;;;5051896;28;20444;-51
2022/04/28 00:37:31;;;;;;;2.00;1.20;;;;;;;;;;5052997;28;20075;-55
2022/04/28 00:39:57;;;;;;;2.67;1.67;;;;;;;;;;5051742;28;20021;-50
2022/04/28 00:42:23;;;;;;;2.28;1.90;;;;;;;;;;5050038;28;20459;-50
2022/04/28 00:44:49;;;;;;;2.55;1.70;;;;;;;;;;5050848;28;20051;-48
2022/04/28 00:47:15;;;;;;;2.03;1.50;;;;;;;;;;5051406;28;20094;-49
2022/04/28 00:52:27;;;;;;;2.17;1.70;;;;;;;;;;5051212;28;20104;-49
2022/04/28 00:54:54;;;;;;;2.10;1.70;;;;;;;;;;5051106;28;20017;-52
2022/04/28 00:57:21;;;;;;;2.45;1.52;;;;;;;;;;5050645;28;20393;-49
2022/04/28 00:59:48;;;;;;;3.60;1.77;;;;;;;;;;5051242;28;20025;-50
2022/04/28 01:02:16;;;;;;;2.97;1.52;;;;;;;;;;5051814;28;20033;-49
2022/04/28 01:04:42;;;;;;;2.65;1.88;;;;;;;;;;5051048;28;20021;-49
2022/04/28 01:07:08;;;;;;;1.83;1.50;;;;;;;;;;5052382;28;20174;-52
2022/04/28 01:09:36;;;;;;;1.40;1.30;;;;;;;;;;5050554;28;20027;-51
2022/04/28 01:12:07;;;;;;;1.65;1.30;;;;;;;;;;5050853;28;20017;-50
2022/04/28 01:14:33;;;;;;;3.85;1.80;;;;;;;;;;5050774;28;20119;-55
2022/04/28 01:16:59;;;;;;;1.70;1.52;;;;;;;;;;5051388;28;20116;-52
2022/04/28 01:19:26;;;;;;;2.67;1.95;;;;;;;;;;5051093;28;20010;-50
2022/04/28 01:21:52;;;;;;;2.03;1.42;;;;;;;;;;5046290;28;20017;-51
2022/04/28 01:24:18;;;;;;;1.88;1.50;;;;;;;;;;5051070;28;20135;-51
2022/04/28 01:26:45;;;;;;;1.95;1.70;;;;;;;;;;5047705;28;20029;-49
2022/04/28 01:29:11;;;;;;;2.60;1.63;;;;;;;;;;5051461;28;20544;-50
2022/04/28 01:31:37;;;;;;;2.25;1.50;;;;;;;;;;5054547;28;20033;-49
2022/04/28 01:34:03;;;;;;;2.45;1.83;;;;;;;;;;5055377;28;20056;-49
2022/04/28 01:36:29;;;;;;;2.28;1.58;;;;;;;;;;5064450;28;20116;-48
2022/04/28 01:38:55;;;;;;;3.35;1.85;;;;;;;;;;5068281;28;20484;-49
2022/04/28 01:41:21;;;;;;;2.05;1.77;;;;;;;;;;5055153;28;20032;-53
2022/04/28 01:43:47;;;;;;;2.22;2.03;;;;;;;;;;5054245;28;20378;-49
2022/04/28 01:46:13;;;;;;;1.63;1.30;;;;;;;;;;5055228;28;20027;-49
2022/04/28 01:48:39;;;;;;;1.80;1.40;;;;;;;;;;5054450;28;20027;-53
2022/04/28 01:56:35;;;;;;;2.00;1.67;;;;;;;;;;5054254;28;20032;-56
2022/04/28 01:59:01;;;;;;;1.90;1.52;;;;;;;;;;5055040;28;20032;-49
2022/04/28 02:01:27;;;;;;;1.55;1.40;;;;;;;;;;5054624;28;20029;-53
2022/04/28 02:03:52;;;;;;;2.17;1.60;;;;;;;;;;5053977;28;20025;-49
2022/04/28 02:06:18;;;;;;;1.80;1.60;;;;;;;;;;5061370;28;20037;-49
2022/04/28 02:08:46;;;;;;;3.10;1.50;;;;;;;;;;5059533;28;20029;-50
2022/04/28 02:11:12;;;;;;;1.80;1.55;;;;;;;;;;5055197;28;20366;-48
2022/04/28 02:13:38;;;;;;;1.70;1.45;;;;;;;;;;5053640;28;20467;-50
2022/04/28 02:16:04;;;;;;;2.50;1.98;;;;;;;;;;5054928;28;20029;-50
2022/04/28 02:18:30;;;;;;;1.48;1.38;;;;;;;;;;5054431;28;20435;-49
2022/04/28 02:20:56;;;;;;;1.70;1.33;;;;;;;;;;5053697;28;20052;-50
2022/04/28 02:23:22;;;;;;;2.20;1.73;;;;;;;;;;5054204;28;20033;-54
2022/04/28 02:25:48;;;;;;;1.50;1.40;;;;;;;;;;5053749;28;20036;-51
2022/04/28 02:28:14;;;;;;;1.80;1.60;;;;;;;;;;5054029;28;20383;-51
2022/04/28 02:30:40;;;;;;;1.88;1.38;;;;;;;;;;5053557;28;20036;-49
2022/04/28 02:33:09;;;;;;;2.58;1.52;;;;;;;;;;5054578;28;20029;-49
2022/04/28 02:35:35;;;;;;;2.80;1.50;;;;;;;;;;5054007;28;20128;-57
2022/04/28 02:38:01;;;;;;;2.55;1.42;;;;;;;;;;5073074;28;20024;-50
2022/04/28 02:40:27;;;;;;;4.43;1.70;;;;;;;;;;5073581;28;20354;-49
2022/04/28 02:42:53;;;;;;;1.40;1.30;;;;;;;;;;5060054;28;20040;-53
2022/04/28 02:45:19;;;;;;;2.05;1.73;;;;;;;;;;5054069;28;20029;-53
2022/04/28 02:47:45;;;;;;;3.42;1.70;;;;;;;;;;5052830;28;20026;-49
2022/04/28 02:50:11;;;;;;;1.90;1.70;;;;;;;;;;5054087;28;20058;-50
2022/04/28 02:52:41;;;;;;;1.92;1.58;;;;;;;;;;5053400;28;20036;-55
2022/04/28 02:55:07;;;;;;;2.00;1.42;;;;;;;;;;5053378;28;20126;-49
2022/04/28 02:57:34;;;;;;;2.58;2.13;;;;;;;;;;5054240;28;20382;-49
2022/04/28 03:00:01;;;;;;;2.35;1.90;;;;;;;;;;5052912;28;20021;-49
2022/04/28 03:02:27;;;;;;;1.85;1.52;;;;;;;;;;5053734;28;20474;-50
2022/04/28 03:04:53;;;;;;;2.03;1.60;;;;;;;;;;5052803;28;20107;-51
2022/04/28 03:12:49;;;;;;;2.08;1.80;;;;;;;;;;5052515;28;20043;-50
2022/04/28 03:15:15;;;;;;;2.13;1.40;;;;;;;;;;5053363;28;20451;-53
2022/04/28 03:17:41;;;;;;;2.22;1.52;;;;;;;;;;5052552;28;20043;-52
2022/04/28 03:20:07;;;;;;;2.25;1.70;;;;;;;;;;5053517;28;20359;-49
2022/04/28 03:22:33;;;;;;;1.95;1.50;;;;;;;;;;5053621;28;20036;-49
2022/04/28 03:24:59;;;;;;;1.70;1.42;;;;;;;;;;5052613;28;20021;-49
2022/04/28 03:27:27;;;;;;;1.92;1.73;;;;;;;;;;5053333;28;20429;-49
2022/04/28 03:29:53;;;;;;;3.90;1.85;;;;;;;;;;5052301;28;20116;-49
2022/04/28 03:32:19;;;;;;;4.65;1.88;;;;;;;;;;5053045;28;20021;-49
2022/04/28 03:34:45;;;;;;;1.80;1.50;;;;;;;;;;5052380;28;20115;-50
2022/04/28 03:37:11;;;;;;;2.72;1.50;;;;;;;;;;5062829;28;20114;-50
2022/04/28 03:39:38;;;;;;;1.85;1.70;;;;;;;;;;5072978;28;20029;-56
2022/04/28 03:42:06;;;;;;;2.97;1.85;;;;;;;;;;5064832;28;20024;-51
2022/04/28 03:44:32;;;;;;;2.13;1.70;;;;;;;;;;5052603;28;20029;-48
2022/04/28 03:46:59;;;;;;;1.55;1.35;;;;;;;;;;5052609;28;20035;-52
2022/04/28 03:49:25;;;;;;;3.70;2.13;;;;;;;;;;5052909;28;20049;-50
2022/04/28 03:51:51;;;;;;;2.28;1.90;;;;;;;;;;5051355;28;20033;-52
2022/04/28 03:54:17;;;;;;;2.47;1.60;;;;;;;;;;5052492;28;20033;-51
2022/04/28 03:56:43;;;;;;;2.17;1.52;;;;;;;;;;5052237;28;20055;-49
2022/04/28 03:59:09;;;;;;;2.72;1.65;;;;;;;;;;5052391;28;20116;-53
2022/04/28 04:01:35;;;;;;;2.28;1.83;;;;;;;;;;5052151;28;20108;-50
2022/04/28 04:04:01;;;;;;;1.92;1.70;;;;;;;;;;5051719;28;20184;-50
2022/04/28 04:06:27;;;;;;;2.13;1.58;;;;;;;;;;5054751;28;20020;-49
2022/04/28 04:08:54;;;;;;;1.90;1.50;;;;;;;;;;5061083;28;20376;-51
2022/04/28 04:11:20;;;;;;;2.08;1.73;;;;;;;;;;5052233;28;20474;-51
2022/04/28 04:13:46;;;;;;;2.17;1.50;;;;;;;;;;5051486;28;20052;-54
2022/04/28 04:16:12;;;;;;;2.55;1.25;;;;;;;;;;5050848;28;20048;-50
2022/04/28 04:18:38;;;;;;;3.33;1.88;;;;;;;;;;5052598;28;20098;-50
2022/04/28 04:21:04;;;;;;;2.25;1.88;;;;;;;;;;5051579;28;20029;-53
2022/04/28 04:23:31;;;;;;;2.78;1.55;;;;;;;;;;5052322;28;20052;-50
2022/04/28 04:25:57;;;;;;;2.10;1.60;;;;;;;;;;5051473;28;20025;-52
2022/04/28 04:28:23;;;;;;;2.33;1.92;;;;;;;;;;5052367;28;20052;-52
2022/04/28 04:33:36;;;;;;;2.25;1.60;;;;;;;;;;5051722;28;20028;-50
2022/04/28 04:36:02;;;;;;;2.15;1.63;;;;;;;;;;5051344;28;20035;-54
2022/04/28 04:38:28;;;;;;;2.28;2.03;;;;;;;;;;5069680;28;20032;-51
2022/04/28 04:40:55;;;;;;;2.85;1.88;;;;;;;;;;5068289;28;20425;-49
2022/04/28 04:43:21;;;;;;;3.15;1.60;;;;;;;;;;5051549;28;20470;-49
2022/04/28 04:45:47;;;;;;;2.92;1.58;;;;;;;;;;5050872;28;20142;-53
2022/04/28 04:48:13;;;;;;;2.80;1.50;;;;;;;;;;5051801;28;20099;-48
2022/04/28 04:50:39;;;;;;;1.88;1.70;;;;;;;;;;5051564;28;20017;-55
2022/04/28 04:53:06;;;;;;;2.05;1.70;;;;;;;;;;5050996;28;20119;-53
2022/04/28 04:55:42;;;;;;;2.97;1.80;;;;;;;;;;5051656;28;20032;-49
2022/04/28 04:58:08;;;;;;;2.40;1.58;;;;;;;;;;5051176;28;20108;-51
2022/04/28 05:00:35;;;;;;;2.55;1.63;;;;;;;;;;5051395;28;20025;-49
2022/04/28 05:03:01;;;;;;;1.70;1.40;;;;;;;;;;5050850;28;20377;-50
2022/04/28 05:05:27;;;;;;;2.65;1.65;;;;;;;;;;5054977;28;20025;-51
2022/04/28 05:07:53;;;;;;;2.47;1.77;;;;;;;;;;5066343;28;20496;-51
2022/04/28 05:10:20;;;;;;;2.33;1.60;;;;;;;;;;5074465;28;20103;-48
2022/04/28 05:12:46;;;;;;;2.17;1.55;;;;;;;;;;5060897;28;20040;-55
2022/04/28 05:15:12;;;;;;;2.10;1.58;;;;;;;;;;5056035;28;20462;-48
2022/04/28 05:17:38;;;;;;;3.35;2.40;;;;;;;;;;5055453;28;20044;-49
2022/04/28 05:20:07;;;;;;;1.95;1.40;;;;;;;;;;5055073;28;20635;-47
2022/04/28 05:22:34;;;;;;;3.35;2.03;;;;;;;;;;5055723;28;20024;-49
2022/04/28 05:25:00;;;;;;;2.85;1.50;;;;;;;;;;5054634;28;20079;-50
2022/04/28 05:27:26;;;;;;;4.35;1.73;;;;;;;;;;5054301;28;20037;-50
2022/04/28 05:29:52;;;;;;;3.10;1.98;;;;;;;;;;5054103;28;20021;-51
2022/04/28 05:32:18;;;;;;;2.45;1.85;;;;;;;;;;5052081;28;20028;-52
2022/04/28 05:34:44;;;;;;;2.35;1.95;;;;;;;;;;5054863;28;20036;-55
2022/04/28 05:37:12;;;;;;;2.55;1.73;;;;;;;;;;5055603;28;20540;-50
2022/04/28 05:39:40;;;;;;;3.13;1.85;;;;;;;;;;5035237;28;20025;-52
2022/04/28 05:42:07;;;;;;;3.33;1.50;;;;;;;;;;5042288;28;20100;-49
2022/04/28 05:47:18;;;;;;;4.55;2.30;;;;;;;;;;5054689;28;20060;-50
2022/04/28 05:49:44;;;;;;;3.50;1.90;;;;;;;;;;5055271;28;20021;-49
2022/04/28 05:52:10;;;;;;;5.53;2.15;;;;;;;;;;5054536;28;20454;-49
2022/04/28 05:54:36;;;;;;;4.70;2.03;;;;;;;;;;5055163;28;20025;-49
2022/04/28 05:57:03;;;;;;;2.85;2.00;;;;;;;;;;5053600;28;21580;-50
2022/04/28 05:59:29;;;;;;;4.25;2.45;;;;;;;;;;5055169;28;20433;-48
2022/04/28 06:01:55;;;;;;;3.72;1.73;;;;;;;;;;5053715;28;20513;-48
2022/04/28 06:04:21;;;;;;;2.67;1.63;;;;;;;;;;5054328;28;20037;-49
2022/04/28 06:06:47;;;;;;;3.45;1.70;;;;;;;;;;5054166;28;20095;-56
2022/04/28 06:09:13;;;;;;;6.38;2.00;;;;;;;;;;5071069;28;20462;-49
2022/04/28 06:11:39;;;;;;;4.57;2.00;;;;;;;;;;5054839;28;20025;-48
2022/04/28 06:14:05;;;;;;;4.05;1.77;;;;;;;;;;5053955;28;20386;-48
2022/04/28 06:16:31;;;;;;;5.72;1.95;;;;;;;;;;5052484;28;20428;-49
2022/04/28 06:18:57;;;;;;;9.20;4.20;;;;;;;;;;5053101;28;20029;-51
2022/04/28 06:21:23;;;;;;;7.43;4.60;;;;;;;;;;5059080;28;20028;-49
2022/04/28 06:23:49;;;;;;;6.82;4.22;;;;;;;;;;5053712;28;20423;-55
2022/04/28 06:26:15;;;;;;;5.03;4.20;;;;;;;;;;5054676;28;20021;-49
2022/04/28 06:28:42;;;;;;;5.60;4.30;;;;;;;;;;5053635;28;20049;-48
2022/04/28 06:31:08;;;;;;;11.68;4.90;;;;;;;;;;5053277;28;20174;-49
2022/04/28 06:33:34;;;;;;;7.28;5.13;;;;;;;;;;5071381;28;20021;-51
2022/04/28 06:36:00;;;;;;;8.70;5.38;;;;;;;;;;5054828;28;20029;-48
2022/04/28 06:38:26;;;;;;;6.30;4.63;;;;;;;;;;5065766;28;20113;-48
2022/04/28 06:40:52;;;;;;;9.38;5.78;;;;;;;;;;5073799;28;20052;-55
2022/04/28 06:43:18;;;;;;;6.10;4.43;;;;;;;;;;5074139;28;20043;-53
2022/04/28 06:46:11;;;;;;;5.22;3.47;;;;;;;;;;5056633;28;20021;-52
2022/04/28 06:48:30;;;;;;;9.52;3.33;;;;;;;;;;5040214;28;20026;-48
2022/04/28 06:50:56;;;;;;;5.70;3.28;;;;;;;;;;5033573;28;20036;-48
2022/04/28 06:53:22;;;;;;;5.22;3.15;;;;;;;;;;5034024;28;20025;-48
2022/04/28 06:55:48;;;;;;;5.80;3.67;;;;;;;;;;5038302;28;20056;-48
2022/04/28 06:58:15;;;;;;;4.90;3.00;;;;;;;;;;5041605;28;20037;-50
2022/04/28 07:00:41;;;;;;;4.47;2.45;;;;;;;;;;5038268;28;20386;-57
2022/04/28 07:03:07;;;;;;;5.68;3.30;;;;;;;;;;5048912;28;20040;-48
2022/04/28 07:05:33;;;;;;;4.50;2.92;;;;;;;;;;5054448;28;20100;-48
2022/04/28 07:07:59;;;;;;;10.27;2.95;;;;;;;;;;5057601;28;20039;-53
2022/04/28 07:10:25;;;;;;;3.60;2.50;;;;;;;;;;5073446;28;20554;-52
2022/04/28 07:12:51;;;;;;;4.10;3.03;;;;;;;;;;5055780;28;20033;-56
2022/04/28 07:15:17;;;;;;;5.63;2.95;;;;;;;;;;5052782;28;20036;-53
2022/04/28 07:17:43;;;;;;;3.92;2.55;;;;;;;;;;5037806;28;20394;-49
2022/04/28 07:20:09;;;;;;;4.25;3.05;;;;;;;;;;5032208;28;20022;-51
2022/04/28 07:22:35;;;;;;;4.05;2.65;;;;;;;;;;5046049;28;20029;-49
2022/04/28 07:25:01;;;;;;;3.28;2.38;;;;;;;;;;5052296;28;20048;-52
2022/04/28 07:27:27;;;;;;;4.93;2.72;;;;;;;;;;5043430;28;20049;-50
2022/04/28 07:29:53;;;;;;;4.95;2.78;;;;;;;;;;5032339;28;20029;-56
2022/04/28 07:32:20;;;;;;;3.25;2.33;;;;;;;;;;5055717;28;20044;-52
2022/04/28 07:34:46;;;;;;;3.08;2.53;;;;;;;;;;5057257;28;20108;-50
2022/04/28 07:37:12;;;;;;;3.45;2.30;;;;;;;;;;5051691;28;20710;-52
2022/04/28 07:39:37;;;;;;;3.80;2.45;;;;;;;;;;5065346;28;20029;-49
2022/04/28 07:42:04;;;;;;;3.97;2.47;;;;;;;;;;5050577;28;20025;-52
2022/04/28 07:44:30;;;;;;;6.22;2.58;;;;;;;;;;5052275;28;20025;-51
2022/04/28 07:46:56;;;;;;;2.72;2.22;;;;;;;;;;5052065;28;20425;-52
2022/04/28 07:49:22;;;;;;;3.60;2.30;;;;;;;;;;5052651;28;20056;-49
2022/04/28 07:51:48;;;;;;;4.68;2.60;;;;;;;;;;5045429;28;20021;-48
2022/04/28 07:54:17;;;;;;;3.00;2.20;;;;;;;;;;5031966;28;20663;-48
2022/04/28 07:56:43;;;;;;;2.88;2.45;;;;;;;;;;5033807;28;20034;-48
2022/04/28 07:59:09;;;;;;;2.47;2.28;;;;;;;;;;5032259;28;20109;-52
2022/04/28 08:01:35;;;;;;;2.75;2.30;;;;;;;;;;5044051;28;20017;-49
2022/04/28 08:04:01;;;;;;;3.78;2.30;;;;;;;;;;5065952;28;20025;-49
2022/04/28 08:06:27;;;;;;;3.10;2.45;;;;;;;;;;5045136;28;20052;-48
2022/04/28 08:08:53;;;;;;;3.22;2.30;;;;;;;;;;5052753;28;20029;-55
2022/04/28 08:11:19;;;;;;;3.58;2.30;;;;;;;;;;5052112;28;20028;-47
2022/04/28 08:13:45;;;;;;;2.72;2.20;;;;;;;;;;5052169;28;20033;-48
2022/04/28 08:16:12;;;;;;;2.97;1.90;;;;;;;;;;5050791;28;20045;-49
2022/04/28 08:18:39;;;;;;;3.90;2.40;;;;;;;;;;5050489;28;20028;-48
2022/04/28 08:21:08;;;;;;;3.25;2.42;;;;;;;;;;5051469;28;20021;-48
2022/04/28 08:23:34;;;;;;;3.40;2.13;;;;;;;;;;5041305;28;20030;-50
2022/04/28 08:26:00;;;;;;;2.08;1.88;;;;;;;;;;5033758;28;20033;-49
2022/04/28 08:28:26;;;;;;;4.95;2.80;;;;;;;;;;5041204;28;20400;-49
2022/04/28 08:30:52;;;;;;;3.45;2.15;;;;;;;;;;5032211;28;20026;-50
2022/04/28 08:33:18;;;;;;;4.45;2.13;;;;;;;;;;5051437;28;20027;-52
2022/04/28 08:35:44;;;;;;;2.83;2.25;;;;;;;;;;5051775;28;20470;-51
2022/04/28 08:38:10;;;;;;;4.25;2.10;;;;;;;;;;5039328;28;20017;-48
2022/04/28 08:40:37;;;;;;;3.78;2.40;;;;;;;;;;5054599;28;20033;-51
2022/04/28 08:43:04;;;;;;;2.80;1.67;;;;;;;;;;5050935;28;20060;-49
2022/04/28 08:45:36;;;;;;;2.10;1.80;;;;;;;;;;5048732;28;20056;-50
2022/04/28 08:48:02;;;;;;;5.13;2.40;;;;;;;;;;5031147;28;20029;-50
2022/04/28 08:50:28;;;;;;;2.92;2.42;;;;;;;;;;5044786;28;20048;-48
2022/04/28 08:52:55;;;;;;;2.53;2.15;;;;;;;;;;5051138;28;20056;-47
2022/04/28 08:55:21;;;;;;;3.85;2.13;;;;;;;;;;5050316;28;20467;-52
2022/04/28 08:57:47;;;;;;;2.95;1.90;;;;;;;;;;5051754;28;20040;-48
2022/04/28 09:00:14;;;;;;;2.88;1.83;;;;;;;;;;5050780;28;20029;-48
2022/04/28 09:02:40;;;;;;;2.38;2.08;;;;;;;;;;5066277;28;20032;-49
2022/04/28 09:05:08;;;;;;;3.22;2.00;;;;;;;;;;5052797;28;20378;-49
2022/04/28 09:07:35;;;;;;;2.55;1.98;;;;;;;;;;5051509;28;20029;-51
2022/04/28 09:10:21;;;;;;;3.67;2.22;;;;;;;;;;5058296;28;20503;-54
2022/04/28 09:15:52;;;;;;;2.60;1.92;;;;;;;;;;5051173;28;20064;-51
2022/04/28 09:18:18;;;;;;;2.03;1.70;;;;;;;;;;5050431;28;20612;-48
2022/04/28 09:20:45;;;;;;;2.70;2.17;;;;;;;;;;5050904;28;20033;-48
2022/04/28 09:23:12;;;;;;;2.10;1.85;;;;;;;;;;5050417;28;20048;-53
2022/04/28 09:25:39;;;;;;;2.03;1.55;;;;;;;;;;5051154;28;20129;-48
2022/04/28 09:28:05;;;;;;;3.22;1.90;;;;;;;;;;5050736;28;20053;-50
2022/04/28 09:30:50;;;;;;;3.55;1.95;;;;;;;;;;5051105;28;20147;-49
2022/04/28 09:33:18;;;;;;;1.55;1.45;;;;;;;;;;5070448;28;20027;-49
2022/04/28 09:35:53;;;;;;;2.55;1.45;;;;;;;;;;5058782;28;20072;-49
2022/04/28 09:38:20;;;;;;;4.20;1.83;;;;;;;;;;5052659;28;20072;-48
2022/04/28 09:43:32;;;;;;;2.75;2.00;;;;;;;;;;5051442;28;20394;-51
2022/04/28 09:45:58;;;;;;;2.85;1.75;;;;;;;;;;5051114;28;20037;-48
2022/04/28 09:48:27;;;;;;;2.83;1.65;;;;;;;;;;5050389;28;20043;-50
2022/04/28 09:50:59;;;;;;;2.17;1.70;;;;;;;;;;5053077;28;20119;-49
2022/04/28 09:53:28;;;;;;;2.15;1.60;;;;;;;;;;5054617;28;20466;-48
2022/04/28 09:55:54;;;;;;;2.25;1.60;;;;;;;;;;5052429;28;20041;-48
2022/04/28 09:58:21;;;;;;;2.00;1.58;;;;;;;;;;5054360;28;20174;-50
2022/04/28 10:00:47;;;;;;;1.92;1.45;;;;;;;;;;5054851;28;20111;-51
2022/04/28 10:03:14;;;;;;;2.92;1.60;;;;;;;;;;5073109;28;20457;-48
2022/04/28 10:05:41;;;;;;;3.17;1.80;;;;;;;;;;5058454;28;20048;-51
2022/04/28 10:08:07;;;;;;;4.32;1.70;;;;;;;;;;5053571;28;20021;-52
2022/04/28 10:10:35;;;;;;;3.30;1.50;;;;;;;;;;5061548;28;20025;-51
2022/04/28 10:13:02;;;;;;;2.00;1.60;;;;;;;;;;5054296;28;20025;-57
2022/04/28 10:15:30;;;;;;;3.35;1.58;;;;;;;;;;5053778;28;20029;-51
2022/04/28 10:18:00;;;;;;;2.90;1.50;;;;;;;;;;5053816;28;20485;-50
2022/04/28 10:20:30;;;;;;;2.42;1.50;;;;;;;;;;5033781;28;20171;-52
2022/04/28 10:22:57;;;;;;;4.00;1.77;;;;;;;;;;5034405;28;20041;-52
2022/04/28 10:33:48;;;;;;;1.88;1.38;;;;;;;;;;5059015;28;20056;-49
2022/04/28 10:36:21;;;;;;;2.35;1.67;;;;;;;;;;5053245;28;20039;-51
2022/04/28 10:39:05;;;;;;;3.78;1.80;;;;;;;;;;5057370;28;20082;-52
2022/04/28 10:41:32;;;;;;;1.90;1.30;;;;;;;;;;5070952;28;20021;-51
2022/04/28 10:44:00;;;;;;;2.13;1.10;;;;;;;;;;5053070;28;20021;-50
2022/04/28 10:46:30;;;;;;;2.60;1.73;;;;;;;;;;5051774;28;20029;-51
2022/04/28 10:49:00;;;;;;;2.15;1.45;;;;;;;;;;5052482;28;20029;-48
2022/04/28 10:51:30;;;;;;;2.05;1.38;;;;;;;;;;5051926;28;20911;-49
2022/04/28 10:54:00;;;;;;;2.13;1.17;;;;;;;;;;5053862;28;20481;-52
2022/04/28 10:56:31;;;;;;;1.77;1.33;;;;;;;;;;5052728;28;20036;-52
2022/04/28 10:59:00;;;;;;;2.25;1.40;;;;;;;;;;5053839;28;20382;-47
2022/04/28 11:01:34;;;;;;;3.45;1.65;;;;;;;;;;5056698;28;20044;-48
2022/04/28 11:04:01;;;;;;;2.78;1.60;;;;;;;;;;5073541;28;20017;-47
2022/04/28 11:06:31;;;;;;;1.98;1.27;;;;;;;;;;5050633;28;20378;-49
2022/04/28 11:08:59;;;;;;;2.28;1.33;;;;;;;;;;5057968;28;20099;-48
2022/04/28 11:11:29;;;;;;;2.15;1.50;;;;;;;;;;5061105;28;20462;-48
2022/04/28 11:13:58;;;;;;;2.85;1.83;;;;;;;;;;5053532;28;20033;-47
2022/04/28 11:16:25;;;;;;;3.03;1.80;;;;;;;;;;5052523;28;20029;-48
2022/04/28 11:18:52;;;;;;;1.60;1.45;;;;;;;;;;5053339;28;20429;-47
2022/04/28 11:21:18;;;;;;;3.22;1.73;;;;;;;;;;5052537;28;20029;-47
2022/04/28 11:23:45;;;;;;;3.05;1.33;;;;;;;;;;5052790;28;20036;-48
2022/04/28 11:26:12;;;;;;;1.75;1.38;;;;;;;;;;5051918;28;20032;-48
2022/04/28 11:28:39;;;;;;;2.22;1.48;;;;;;;;;;5053407;28;20506;-48
2022/04/28 11:31:10;;;;;;;1.92;1.30;;;;;;;;;;5052289;28;20540;-54
2022/04/28 11:33:36;;;;;;;3.23;1.67;;;;;;;;;;5047026;28;20017;-48
2022/04/28 11:36:13;;;;;;;2.70;1.10;;;;;;;;;;5053119;28;20112;-49
2022/04/28 11:38:47;;;;;;;2.58;1.75;;;;;;;;;;5053606;28;20039;-49
2022/04/28 11:41:13;;;;;;;1.98;1.10;;;;;;;;;;5070112;28;20021;-48
2022/04/28 11:43:39;;;;;;;2.15;1.55;;;;;;;;;;5053086;28;20032;-47
2022/04/28 11:46:07;;;;;;;1.58;1.38;;;;;;;;;;5052234;28;20032;-51
2022/04/28 11:48:34;;;;;;;3.10;1.38;;;;;;;;;;5052521;28;20053;-48
2022/04/28 11:51:06;;;;;;;1.58;1.27;;;;;;;;;;5052391;28;20463;-48
2022/04/28 11:53:39;;;;;;;1.40;1.10;;;;;;;;;;5050580;28;20040;-47
2022/04/28 11:56:23;;;;;;;2.70;1.30;;;;;;;;;;5052273;28;20044;-49
2022/04/28 11:58:51;;;;;;;1.38;1.08;;;;;;;;;;5052671;28;20021;-47
2022/04/28 12:01:19;;;;;;;1.40;1.30;;;;;;;;;;5055135;28;20025;-47
2022/04/28 12:03:50;;;;;;;1.67;1.58;;;;;;;;;;5060067;28;20441;-47
2022/04/28 12:06:17;;;;;;;2.27;1.63;;;;;;;;;;5051498;28;20025;-48
2022/04/28 12:08:51;;;;;;;1.90;1.25;;;;;;;;;;5052450;28;20259;-52
2022/04/28 12:19:33;;;;;;;1.45;1.10;;;;;;;;;;5051427;28;20032;-50
2022/04/28 12:22:02;;;;;;;1.58;1.15;;;;;;;;;;5052329;28;20108;-47
2022/04/28 12:24:32;;;;;;;2.10;1.50;;;;;;;;;;5051417;28;20075;-50
2022/04/28 12:27:04;;;;;;;1.48;1.10;;;;;;;;;;5051849;28;20039;-48
2022/04/28 12:29:30;;;;;;;1.48;1.15;;;;;;;;;;5051587;28;20028;-48
2022/04/28 12:31:56;;;;;;;1.90;1.40;;;;;;;;;;5060653;28;20025;-48
2022/04/28 12:34:23;;;;;;;1.27;1.02;;;;;;;;;;5054943;28;20083;-51
2022/04/28 12:36:54;;;;;;;2.17;1.30;;;;;;;;;;5051750;28;20028;-48
2022/04/28 12:39:21;;;;;;;1.30;1.05;;;;;;;;;;5053715;28;20021;-51
2022/04/28 12:41:48;;;;;;;2.25;1.60;;;;;;;;;;5066920;28;20060;-47
2022/04/28 12:44:14;;;;;;;2.42;1.10;;;;;;;;;;5051221;28;20037;-52
2022/04/28 12:46:45;;;;;;;1.55;1.10;;;;;;;;;;5051398;28;20057;-50
2022/04/28 12:49:12;;;;;;;2.13;1.50;;;;;;;;;;5050966;28;20021;-53
2022/04/28 12:51:44;;;;;;;1.67;1.27;;;;;;;;;;5051875;28;20025;-53
2022/04/28 12:54:10;;;;;;;1.75;1.50;;;;;;;;;;5050498;28;20021;-55
2022/04/28 12:56:40;;;;;;;1.38;1.27;;;;;;;;;;5051109;28;20057;-51
2022/04/28 12:59:07;;;;;;;1.17;0.90;;;;;;;;;;5051719;28;20103;-48
2022/04/28 13:01:34;;;;;;;2.25;1.52;;;;;;;;;;5055971;28;20048;-50
2022/04/28 13:04:02;;;;;;;2.05;1.20;;;;;;;;;;5054533;28;20028;-49
2022/04/28 13:06:30;;;;;;;2.72;1.25;;;;;;;;;;5048968;28;20035;-49
2022/04/28 13:08:57;;;;;;;1.83;1.27;;;;;;;;;;5051620;28;20029;-47
2022/04/28 13:11:25;;;;;;;1.50;1.40;;;;;;;;;;5064481;28;20140;-48
2022/04/28 13:13:51;;;;;;;2.15;1.00;;;;;;;;;;5051682;28;20372;-50
2022/04/28 13:16:17;;;;;;;1.40;1.30;;;;;;;;;;5049799;28;20474;-47
2022/04/28 13:18:44;;;;;;;2.92;1.30;;;;;;;;;;5051701;28;20029;-50
2022/04/28 13:21:12;;;;;;;1.42;1.20;;;;;;;;;;5051484;28;20017;-48
2022/04/28 13:23:39;;;;;;;1.88;1.10;;;;;;;;;;5051418;28;20032;-48
2022/04/28 13:26:06;;;;;;;1.33;0.98;;;;;;;;;;5053992;28;20032;-48
2022/04/28 13:28:32;;;;;;;1.10;0.90;;;;;;;;;;5054009;28;20053;-48
2022/04/28 13:30:58;;;;;;;1.73;1.20;;;;;;;;;;5054599;28;20120;-47
2022/04/28 13:33:24;;;;;;;1.23;1.10;;;;;;;;;;5054544;28;20032;-47
2022/04/28 13:35:51;;;;;;;1.80;1.33;;;;;;;;;;5055415;28;20089;-48
2022/04/28 13:38:17;;;;;;;1.40;0.90;;;;;;;;;;5055128;28;20025;-48
2022/04/28 13:40:43;;;;;;;1.27;0.90;;;;;;;;;;5065143;28;20074;-49
2022/04/28 13:43:09;;;;;;;1.30;1.17;;;;;;;;;;5054391;28;20039;-47
2022/04/28 13:45:35;;;;;;;1.83;1.30;;;;;;;;;;5053735;28;20020;-47
2022/04/28 13:48:01;;;;;;;1.95;1.13;;;;;;;;;;5054162;28;20029;-48
2022/04/28 13:50:28;;;;;;;1.10;1.00;;;;;;;;;;5054424;28;20033;-47
2022/04/28 13:52:54;;;;;;;3.53;1.40;;;;;;;;;;5054825;28;20029;-48
2022/04/28 13:55:20;;;;;;;1.55;1.02;;;;;;;;;;5054091;28;20075;-48
2022/04/28 13:57:47;;;;;;;1.90;1.27;;;;;;;;;;5054919;28;20454;-47
2022/04/28 14:00:14;;;;;;;1.88;1.13;;;;;;;;;;5054902;28;20108;-54
2022/04/28 14:02:43;;;;;;;1.30;1.00;;;;;;;;;;5069020;28;20099;-47
2022/04/28 14:05:10;;;;;;;3.40;1.40;;;;;;;;;;5055472;28;20394;-47
2022/04/28 14:07:36;;;;;;;2.17;0.93;;;;;;;;;;5054003;28;20412;-48
2022/04/28 14:10:06;;;;;;;2.30;0.90;;;;;;;;;;5057875;28;20021;-48
2022/04/28 14:12:32;;;;;;;2.30;1.10;;;;;;;;;;5073717;28;20461;-47
2022/04/28 14:14:59;;;;;;;1.00;0.90;;;;;;;;;;5064303;28;20075;-48
2022/04/28 14:17:25;;;;;;;1.88;1.15;;;;;;;;;;5053561;28;20033;-49
2022/04/28 14:19:52;;;;;;;4.95;1.20;;;;;;;;;;5054445;28;20028;-50
2022/04/28 14:22:18;;;;;;;2.85;1.33;;;;;;;;;;5053516;28;20478;-51
2022/04/28 14:24:45;;;;;;;1.13;1.02;;;;;;;;;;5054140;28;20041;-48
2022/04/28 14:27:12;;;;;;;1.45;1.08;;;;;;;;;;5054523;28;20393;-48
2022/04/28 14:29:38;;;;;;;2.15;1.13;;;;;;;;;;5053398;28;20041;-49
2022/04/28 14:32:04;;;;;;;1.75;1.20;;;;;;;;;;5064120;28;20040;-50
2022/04/28 14:34:30;;;;;;;2.15;1.30;;;;;;;;;;5055595;28;20074;-48
2022/04/28 14:36:56;;;;;;;1.88;1.20;;;;;;;;;;5052940;28;20028;-49
2022/04/28 14:39:22;;;;;;;2.10;1.15;;;;;;;;;;5053274;28;20041;-52
2022/04/28 14:41:49;;;;;;;1.42;0.98;;;;;;;;;;5066156;28;20389;-48
2022/04/28 14:44:15;;;;;;;2.25;1.30;;;;;;;;;;5052831;28;20029;-56
2022/04/28 14:46:41;;;;;;;1.30;1.05;;;;;;;;;;5052837;28;20052;-52
2022/04/28 14:54:40;;;;;;;2.13;1.42;;;;;;;;;;5053080;28;20036;-49
2022/04/28 14:57:09;;;;;;;0.93;0.82;;;;;;;;;;5053871;28;20029;-49
2022/04/28 14:59:36;;;;;;;2.50;1.48;;;;;;;;;;5051446;28;20756;-49
2022/04/28 15:02:02;;;;;;;2.30;1.33;;;;;;;;;;5062921;28;20024;-48
2022/04/28 15:04:28;;;;;;;2.17;1.63;;;;;;;;;;5052429;28;20094;-50
2022/04/28 15:06:54;;;;;;;1.85;1.30;;;;;;;;;;5053274;28;20024;-49
2022/04/28 15:09:20;;;;;;;2.58;1.35;;;;;;;;;;5053033;28;20021;-53
2022/04/28 15:11:46;;;;;;;3.80;1.63;;;;;;;;;;5053250;28;20095;-48
2022/04/28 15:14:15;;;;;;;5.30;1.40;;;;;;;;;;5053203;28;20505;-47
2022/04/28 15:16:41;;;;;;;4.28;1.30;;;;;;;;;;5052650;28;20098;-48
2022/04/28 15:19:07;;;;;;;3.53;1.27;;;;;;;;;;5053573;28;20033;-48
2022/04/28 15:21:33;;;;;;;4.38;1.60;;;;;;;;;;5052330;28;20373;-48
2022/04/28 15:23:59;;;;;;;3.95;1.55;;;;;;;;;;5053563;28;20029;-47
2022/04/28 15:26:25;;;;;;;5.15;1.60;;;;;;;;;;5052735;28;20413;-48
2022/04/28 15:28:52;;;;;;;5.95;1.65;;;;;;;;;;5053064;28;20135;-48